Time;durP1;ratioP1;P1;durP2;ratioP2;P2;SDS_P1;SDS_P2;PMS_P1;PMS_P2;Temp;Humidity;BMP_temperature;BMP_pressure;BME280_temperature;BME280_humidity;BME280_pressure;Samples;Min_cycle;Max_cycle;Signal;HPM_P1;HPM_P2
2022/03/20 00:00:08;;;;;;;6.68;2.85;;;8.70;48.30;;;;;;5058396;28;20761;-86
2022/03/20 00:02:35;;;;;;;4.05;1.95;;;;;;;;;;5054924;28;20177;-86
2022/03/20 00:05:04;;;;;;;5.97;2.80;;;8.60;48.40;;;;;;5059019;28;20173;-86
2022/03/20 00:07:33;;;;;;;3.15;2.55;;;8.60;48.50;;;;;;5058694;28;20232;-86
2022/03/20 00:09:59;;;;;;;6.05;2.97;;;;;;;;;;5059507;28;20173;-86
2022/03/20 00:12:25;;;;;;;7.35;2.45;;;;;;;;;;5058732;28;20196;-86
2022/03/20 00:14:51;;;;;;;5.93;1.83;;;;;;;;;;5060024;28;20280;-85
2022/03/20 00:17:20;;;;;;;2.35;1.90;;;;;;;;;;5061444;28;20240;-84
2022/03/20 00:19:46;;;;;;;3.70;2.08;;;8.60;48.90;;;;;;5061111;28;20189;-85
2022/03/20 00:22:12;;;;;;;3.65;2.17;;;8.50;49.00;;;;;;5063134;28;20187;-85
2022/03/20 00:24:41;;;;;;;3.97;2.60;;;8.50;50.00;;;;;;5061596;28;20259;-84
2022/03/20 00:27:08;;;;;;;7.38;2.50;;;;;;;;;;5060312;28;20471;-88
2022/03/20 00:29:35;;;;;;;5.60;2.45;;;;;;;;;;5060388;28;20188;-84
2022/03/20 00:32:01;;;;;;;4.15;1.98;;;8.20;50.00;;;;;;5060548;28;20174;-85
2022/03/20 00:34:26;;;;;;;8.83;2.57;;;8.20;50.30;;;;;;5059241;28;20247;-85
2022/03/20 00:36:52;;;;;;;2.67;2.30;;;8.30;51.50;;;;;;5043026;28;20658;-84
2022/03/20 00:39:18;;;;;;;3.20;2.23;;;8.20;51.10;;;;;;5045130;28;20633;-85
2022/03/20 00:41:44;;;;;;;10.13;2.90;;;8.10;51.30;;;;;;5063139;28;20192;-84
2022/03/20 00:44:10;;;;;;;4.00;2.40;;;8.00;51.30;;;;;;5064108;28;20268;-86
2022/03/20 00:46:36;;;;;;;7.03;3.15;;;8.00;51.50;;;;;;5062647;28;20220;-85
2022/03/20 00:49:02;;;;;;;5.17;2.93;;;8.00;51.60;;;;;;5063935;28;20645;-85
2022/03/20 00:51:28;;;;;;;5.95;2.75;;;7.80;51.90;;;;;;5061047;28;20592;-85
2022/03/20 00:53:54;;;;;;;6.23;2.40;;;7.70;52.20;;;;;;5059309;28;20240;-85
2022/03/20 00:56:20;;;;;;;7.60;2.47;;;7.80;53.10;;;;;;5062443;28;20589;-85
2022/03/20 00:58:47;;;;;;;6.30;2.63;;;7.70;52.50;;;;;;5064587;28;20415;-85
2022/03/20 01:01:14;;;;;;;6.88;2.70;;;7.70;52.60;;;;;;5067400;28;20201;-86
2022/03/20 01:03:40;;;;;;;3.90;2.35;;;7.80;52.60;;;;;;5071307;28;20211;-87
2022/03/20 01:06:07;;;;;;;3.42;2.35;;;7.80;52.50;;;;;;5062694;28;20209;-85
2022/03/20 01:08:34;;;;;;;7.40;2.75;;;7.90;52.50;;;;;;5056486;28;20185;-85
2022/03/20 01:11:01;;;;;;;5.10;3.35;;;7.80;52.50;;;;;;5053894;28;20281;-88
2022/03/20 01:13:29;;;;;;;3.67;2.47;;;7.80;52.60;;;;;;5053902;28;20638;-86
2022/03/20 01:15:55;;;;;;;6.47;3.78;;;7.70;53.10;;;;;;5054910;28;20201;-86
2022/03/20 01:18:21;;;;;;;6.38;2.22;;;;;;;;;;5053869;28;20181;-85
2022/03/20 01:20:46;;;;;;;7.43;3.03;;;7.70;52.70;;;;;;5053510;28;20173;-85
2022/03/20 01:23:12;;;;;;;4.43;2.83;;;7.50;53.70;;;;;;5053591;28;20177;-87
2022/03/20 01:25:40;;;;;;;5.73;2.40;;;7.50;53.90;;;;;;5055399;28;20260;-88
2022/03/20 01:28:05;;;;;;;11.23;4.18;;;7.40;54.10;;;;;;5060846;28;20185;-88
2022/03/20 01:30:31;;;;;;;4.10;2.97;;;7.60;54.30;;;;;;5053895;28;20235;-88
2022/03/20 01:32:57;;;;;;;4.20;2.47;;;7.50;54.20;;;;;;5055592;28;20545;-86
2022/03/20 01:35:23;;;;;;;4.00;2.75;;;7.40;54.50;;;;;;5055424;28;20985;-86
2022/03/20 01:37:50;;;;;;;4.03;2.97;;;7.40;54.60;;;;;;5066033;28;20205;-86
2022/03/20 01:40:16;;;;;;;6.68;2.75;;;7.40;54.80;;;;;;5070248;28;20735;-87
2022/03/20 01:42:43;;;;;;;8.23;2.92;;;7.40;54.80;;;;;;5069485;28;20185;-86
2022/03/20 01:45:20;;;;;;;6.25;3.00;;;7.40;55.00;;;;;;5071130;28;20201;-86
2022/03/20 01:47:47;;;;;;;4.65;2.72;;;7.40;55.00;;;;;;5069886;28;20209;-86
2022/03/20 01:50:19;;;;;;;5.20;3.00;;;7.20;55.20;;;;;;5069777;28;20181;-85
2022/03/20 01:52:45;;;;;;;3.70;3.40;;;7.30;55.50;;;;;;5066450;28;20173;-85
2022/03/20 01:55:12;;;;;;;6.00;3.75;;;7.10;55.50;;;;;;5055613;28;20180;-84
2022/03/20 01:57:44;;;;;;;6.70;3.38;;;7.10;55.70;;;;;;5058646;28;20716;-85
2022/03/20 02:00:11;;;;;;;8.40;3.00;;;7.20;55.80;;;;;;5073676;28;20169;-87
2022/03/20 02:02:37;;;;;;;7.10;3.58;;;7.20;55.70;;;;;;5076556;28;20177;-86
2022/03/20 02:05:05;;;;;;;6.70;3.30;;;7.10;55.90;;;;;;5075359;28;20212;-85
2022/03/20 02:07:34;;;;;;;9.13;3.33;;;7.00;56.20;;;;;;5058926;28;20478;-85
2022/03/20 02:10:01;;;;;;;6.05;4.50;;;7.10;56.70;;;;;;5058822;28;20177;-85
2022/03/20 02:12:28;;;;;;;10.88;4.80;;;7.00;56.50;;;;;;5067719;28;20180;-85
2022/03/20 02:14:56;;;;;;;4.45;3.00;;;7.00;56.60;;;;;;5063310;28;20245;-85
2022/03/20 02:17:21;;;;;;;5.07;3.40;;;7.00;56.90;;;;;;5058625;28;20238;-85
2022/03/20 02:19:48;;;;;;;8.03;3.53;;;7.00;57.00;;;;;;5058516;28;20260;-85
2022/03/20 02:22:13;;;;;;;5.47;3.22;;;7.00;57.10;;;;;;5056526;28;20503;-84
2022/03/20 02:24:46;;;;;;;10.30;4.90;;;7.00;57.40;;;;;;5054946;28;20216;-85
2022/03/20 02:27:24;;;;;;;6.57;4.32;;;6.90;57.40;;;;;;5057589;28;20463;-86
2022/03/20 02:29:52;;;;;;;7.55;3.90;;;7.00;57.50;;;;;;5053866;28;20179;-85
2022/03/20 02:32:23;;;;;;;5.30;4.35;;;6.90;57.20;;;;;;5056027;28;20178;-85
2022/03/20 02:34:59;;;;;;;5.57;4.07;;;6.80;57.50;;;;;;5056251;28;20208;-85
2022/03/20 02:37:28;;;;;;;7.10;3.83;;;6.60;57.80;;;;;;5056597;28;20289;-85
2022/03/20 02:39:56;;;;;;;6.70;4.15;;;6.70;58.20;;;;;;5055787;28;20272;-85
2022/03/20 02:42:23;;;;;;;11.75;4.90;;;6.70;59.00;;;;;;5057304;28;20192;-85
2022/03/20 02:45:07;;;;;;;13.63;4.45;;;6.50;58.60;;;;;;5064536;28;20197;-85
2022/03/20 02:47:38;;;;;;;7.50;5.10;;;6.60;59.10;;;;;;5057541;28;20234;-85
2022/03/20 02:50:08;;;;;;;12.15;5.75;;;6.60;58.80;;;;;;5038587;28;20235;-86
2022/03/20 02:52:39;;;;;;;11.00;5.70;;;6.60;59.50;;;;;;5055200;28;20201;-84
2022/03/20 02:55:06;;;;;;;13.07;5.85;;;;;;;;;;5057270;28;20220;-84
2022/03/20 02:57:32;;;;;;;12.70;6.45;;;;;;;;;;5060843;28;20200;-84
2022/03/20 03:00:04;;;;;;;11.13;5.60;;;6.60;59.10;;;;;;5059490;28;20182;-84
2022/03/20 03:02:43;;;;;;;11.77;4.85;;;6.50;59.00;;;;;;5060430;28;20181;-84
2022/03/20 03:05:09;;;;;;;15.30;7.45;;;;;;;;;;5061139;28;20231;-84
2022/03/20 03:10:55;;;;;;;13.73;5.85;;;6.60;59.10;;;;;;5080073;28;20204;-84
2022/03/20 03:13:10;;;;;;;12.88;6.70;;;6.40;59.00;;;;;;5075759;28;20558;-88
2022/03/20 03:15:36;;;;;;;12.15;6.40;;;;;;;;;;5060986;28;20319;-86
2022/03/20 03:18:02;;;;;;;10.60;7.53;;;6.40;59.20;;;;;;5058184;28;20177;-86
2022/03/20 03:20:28;;;;;;;16.13;8.30;;;6.40;59.80;;;;;;5031687;28;20197;-86
2022/03/20 03:22:53;;;;;;;15.77;8.13;;;6.40;59.70;;;;;;5048843;28;20419;-89
2022/03/20 03:25:29;;;;;;;12.97;9.00;;;6.40;59.50;;;;;;5058075;28;20468;-86
2022/03/20 03:27:55;;;;;;;11.05;7.05;;;6.40;59.40;;;;;;5048783;28;20280;-87
2022/03/20 03:30:21;;;;;;;17.92;9.48;;;6.40;59.30;;;;;;5059849;28;20212;-86
2022/03/20 03:32:47;;;;;;;12.90;8.37;;;;;;;;;;5063361;28;20173;-85
2022/03/20 03:38:00;;;;;;;17.13;9.68;;;6.40;58.60;;;;;;5069698;28;20208;-85
2022/03/20 03:40:26;;;;;;;16.55;9.70;;;6.20;58.40;;;;;;5067264;28;20181;-86
2022/03/20 03:42:53;;;;;;;16.20;10.23;;;6.30;58.60;;;;;;5063736;28;20185;-86
2022/03/20 03:45:18;;;;;;;14.23;9.68;;;6.30;59.30;;;;;;5066243;28;20182;-86
2022/03/20 03:47:44;;;;;;;18.97;10.63;;;;;;;;;;5068597;28;20257;-86
2022/03/20 03:50:11;;;;;;;17.65;10.52;;;6.20;58.30;;;;;;5073439;28;20420;-86
2022/03/20 03:52:37;;;;;;;20.08;9.80;;;6.30;59.20;;;;;;5060263;28;20185;-86
2022/03/20 03:55:04;;;;;;;23.63;12.90;;;6.30;58.70;;;;;;5060387;28;20173;-86
2022/03/20 03:57:30;;;;;;;18.67;10.98;;;6.30;58.70;;;;;;5035905;28;20217;-85
2022/03/20 03:59:56;;;;;;;19.10;10.67;;;6.30;58.50;;;;;;5056549;28;20169;-87
2022/03/20 04:02:22;;;;;;;15.77;11.43;;;6.20;58.60;;;;;;5058724;28;20514;-86
2022/03/20 04:04:48;;;;;;;25.57;12.40;;;6.20;58.70;;;;;;5057738;28;20260;-87
2022/03/20 04:07:18;;;;;;;22.10;13.20;;;6.10;58.80;;;;;;5054310;28;20461;-86
2022/03/20 04:09:52;;;;;;;20.10;11.68;;;6.00;58.80;;;;;;5058349;28;20416;-85
2022/03/20 04:12:18;;;;;;;27.92;12.10;;;6.10;58.90;;;;;;5061421;28;20168;-86
2022/03/20 04:14:45;;;;;;;24.97;13.80;;;6.00;59.00;;;;;;5055350;28;20239;-86
2022/03/20 04:17:11;;;;;;;22.48;12.98;;;6.00;59.00;;;;;;5058410;28;20526;-87
2022/03/20 04:19:37;;;;;;;24.50;12.23;;;6.10;59.10;;;;;;5064008;28;20215;-86
2022/03/20 04:22:04;;;;;;;21.17;13.27;;;6.00;58.90;;;;;;5073946;28;20432;-86
2022/03/20 04:24:30;;;;;;;23.17;12.23;;;6.10;58.90;;;;;;5074629;28;20208;-87
2022/03/20 04:26:58;;;;;;;20.38;13.18;;;6.00;58.80;;;;;;5073891;28;20212;-87
2022/03/20 04:29:27;;;;;;;28.20;14.27;;;5.90;59.00;;;;;;5074193;28;20177;-87
2022/03/20 04:31:54;;;;;;;25.50;13.88;;;5.90;59.20;;;;;;5075849;28;20215;-87
2022/03/20 04:34:21;;;;;;;28.50;15.00;;;5.90;59.10;;;;;;5075375;28;20181;-86
2022/03/20 04:36:48;;;;;;;21.00;12.63;;;5.80;58.70;;;;;;5067318;28;20704;-87
2022/03/20 04:39:14;;;;;;;20.45;13.15;;;6.00;58.70;;;;;;5076997;28;20169;-87
2022/03/20 04:41:41;;;;;;;21.40;13.70;;;6.20;59.20;;;;;;5072246;28;20184;-86
2022/03/20 04:44:12;;;;;;;19.02;11.95;;;6.10;58.40;;;;;;5075084;28;20551;-87
2022/03/20 04:46:39;;;;;;;22.70;12.27;;;6.00;58.30;;;;;;5055905;28;20217;-87
2022/03/20 05:00:23;;;;;;;24.25;13.27;;;6.00;58.20;;;;;;5041116;28;20862;-87
2022/03/20 05:02:49;;;;;;;24.90;13.93;;;6.00;58.20;;;;;;5054352;28;20275;-87
2022/03/20 05:05:16;;;;;;;31.75;15.05;;;6.00;58.20;;;;;;5058452;28;20180;-86
2022/03/20 05:07:42;;;;;;;28.17;14.80;;;6.10;58.30;;;;;;5064508;28;20209;-86
2022/03/20 05:15:37;;;;;;;21.65;13.63;;;6.00;58.00;;;;;;5053703;28;20203;-86
2022/03/20 05:18:03;;;;;;;28.07;15.20;;;6.00;58.00;;;;;;5061097;28;20212;-86
2022/03/20 05:20:29;;;;;;;32.10;16.38;;;5.90;58.10;;;;;;5058469;28;20637;-85
2022/03/20 05:22:55;;;;;;;23.43;15.40;;;6.00;58.20;;;;;;5053284;28;20215;-86
2022/03/20 05:25:21;;;;;;;23.93;14.33;;;6.10;58.20;;;;;;5059885;28;20419;-86
2022/03/20 05:27:47;;;;;;;29.38;15.63;;;6.00;57.90;;;;;;5059908;28;20489;-87
2022/03/20 05:30:13;;;;;;;25.97;15.07;;;6.00;57.80;;;;;;5053134;28;20181;-87
2022/03/20 05:32:40;;;;;;;23.65;14.80;;;6.00;57.80;;;;;;5053285;28;20424;-87
2022/03/20 05:35:08;;;;;;;29.88;15.88;;;6.00;57.60;;;;;;5053888;28;20184;-88
2022/03/20 05:37:34;;;;;;;26.70;13.65;;;6.00;57.60;;;;;;5045195;28;20250;-87
2022/03/20 05:40:00;;;;;;;30.13;15.75;;;6.00;57.60;;;;;;5054517;28;20178;-87
2022/03/20 05:42:26;;;;;;;27.48;15.20;;;6.00;57.50;;;;;;5058151;28;20184;-86
2022/03/20 05:44:52;;;;;;;29.10;16.60;;;;;;;;;;5057970;28;20181;-85
2022/03/20 05:47:18;;;;;;;31.80;17.10;;;;;;;;;;5056163;28;20482;-85
2022/03/20 05:49:46;;;;;;;30.27;15.68;;;;;;;;;;5056932;28;20276;-85
2022/03/20 05:52:16;;;;;;;25.58;14.40;;;5.80;57.80;;;;;;5037769;28;20568;-84
2022/03/20 05:54:42;;;;;;;26.60;13.32;;;5.90;57.80;;;;;;5043721;28;20181;-84
2022/03/20 05:59:54;;;;;;;28.25;14.10;;;;;;;;;;5055322;28;20222;-85
2022/03/20 06:02:21;;;;;;;25.83;16.60;;;;;;;;;;5034409;28;20182;-85
2022/03/20 06:04:47;;;;;;;27.30;15.25;;;5.90;58.00;;;;;;5038025;28;20204;-84
2022/03/20 06:07:14;;;;;;;30.07;16.70;;;;;;;;;;5056509;28;20205;-85
2022/03/20 06:09:40;;;;;;;29.08;15.00;;;;;;;;;;5055003;28;20412;-85
2022/03/20 06:12:07;;;;;;;26.35;16.13;;;6.00;57.60;;;;;;5054367;28;20535;-84
2022/03/20 06:14:35;;;;;;;29.33;14.25;;;6.10;58.00;;;;;;5054559;28;20178;-87
2022/03/20 06:17:09;;;;;;;30.05;15.15;;;5.90;57.70;;;;;;5053918;28;20204;-86
2022/03/20 06:19:36;;;;;;;32.42;16.73;;;5.90;58.20;;;;;;5055333;28;20719;-86
2022/03/20 06:22:03;;;;;;;31.85;16.88;;;6.00;58.00;;;;;;5054202;28;20188;-86
2022/03/20 06:24:28;;;;;;;30.52;16.55;;;6.10;57.90;;;;;;5038861;28;20177;-85
2022/03/20 06:26:54;;;;;;;37.57;17.97;;;6.10;57.80;;;;;;5055155;28;20216;-85
2022/03/20 06:29:20;;;;;;;30.57;15.93;;;6.10;57.70;;;;;;5057799;28;20169;-87
2022/03/20 06:31:49;;;;;;;33.20;16.87;;;6.00;57.60;;;;;;5063891;28;20245;-85
2022/03/20 06:34:15;;;;;;;31.50;19.05;;;6.00;57.70;;;;;;5062478;28;20170;-86
2022/03/20 06:36:41;;;;;;;26.95;17.77;;;5.90;58.10;;;;;;5066429;28;20201;-85
2022/03/20 06:39:07;;;;;;;38.23;17.27;;;6.00;58.10;;;;;;5045177;28;20213;-88
2022/03/20 06:41:32;;;;;;;32.50;17.30;;;5.90;58.20;;;;;;5046244;28;20190;-88
2022/03/20 06:43:58;;;;;;;31.10;16.80;;;5.80;58.30;;;;;;5062047;28;20342;-88
2022/03/20 06:46:27;;;;;;;36.60;17.43;;;5.70;58.60;;;;;;5038744;28;20201;-88
2022/03/20 06:48:53;;;;;;;32.15;18.23;;;5.80;58.50;;;;;;5040014;28;20182;-88
2022/03/20 06:51:22;;;;;;;32.53;17.85;;;5.80;58.20;;;;;;5055967;28;20654;-88
2022/03/20 06:53:48;;;;;;;26.73;16.50;;;5.90;58.20;;;;;;5057612;28;20182;-89
2022/03/20 06:56:13;;;;;;;34.67;18.70;;;6.00;57.80;;;;;;5060026;28;20625;-89
2022/03/20 06:58:39;;;;;;;31.77;17.20;;;6.10;57.70;;;;;;5057870;28;20201;-89
2022/03/20 07:01:06;;;;;;;29.00;15.87;;;5.90;57.50;;;;;;5059370;28;20193;-88
2022/03/20 07:03:34;;;;;;;28.58;18.27;;;5.90;57.60;;;;;;5059690;28;20432;-88
2022/03/20 07:06:00;;;;;;;28.25;17.27;;;6.00;57.60;;;;;;5063456;28;20201;-89
2022/03/20 07:08:26;;;;;;;27.33;16.30;;;6.00;57.50;;;;;;5074271;28;20211;-88
2022/03/20 07:10:51;;;;;;;32.33;16.70;;;6.20;57.20;;;;;;5076956;28;20208;-89
2022/03/20 07:16:01;;;;;;;30.60;18.25;;;6.50;55.90;;;;;;5076475;28;20196;-87
2022/03/20 07:18:27;;;;;;;28.20;17.80;;;6.60;55.60;;;;;;5074219;28;20851;-88
2022/03/20 07:20:54;;;;;;;27.90;17.57;;;6.70;55.30;;;;;;5083659;28;20430;-89
2022/03/20 07:23:21;;;;;;;27.63;16.90;;;6.60;54.80;;;;;;5078462;28;20493;-88
2022/03/20 07:31:18;;;;;;;33.38;17.42;;;6.40;54.80;;;;;;5053057;28;20189;-87
2022/03/20 07:33:44;;;;;;;32.47;18.07;;;6.50;55.00;;;;;;5058183;28;20174;-89
2022/03/20 07:36:10;;;;;;;31.30;16.85;;;6.50;54.70;;;;;;5059255;28;20200;-89
2022/03/20 07:38:36;;;;;;;46.15;18.10;;;6.30;54.80;;;;;;5042590;28;20174;-89
2022/03/20 07:41:03;;;;;;;38.45;18.05;;;6.20;54.80;;;;;;5022294;28;20178;-88
2022/03/20 07:43:28;;;;;;;37.10;19.20;;;6.20;55.20;;;;;;5055704;28;20189;-88
2022/03/20 07:45:56;;;;;;;33.63;16.63;;;6.10;56.00;;;;;;5056068;28;20190;-88
2022/03/20 07:48:24;;;;;;;30.30;17.40;;;6.00;56.90;;;;;;5057685;28;20227;-89
2022/03/20 07:50:53;;;;;;;41.17;20.38;;;5.80;59.70;;;;;;5050846;28;20185;-89
2022/03/20 07:53:19;;;;;;;33.92;19.98;;;5.90;62.60;;;;;;5057714;28;20181;-89
2022/03/20 07:55:46;;;;;;;39.15;19.48;;;5.90;65.00;;;;;;5060077;28;20271;-88
2022/03/20 07:58:12;;;;;;;34.13;19.15;;;5.60;66.90;;;;;;5064107;28;20176;-88
2022/03/20 08:00:41;;;;;;;40.20;22.15;;;5.70;68.20;;;;;;5070581;28;20219;-90
2022/03/20 08:03:10;;;;;;;44.83;22.00;;;5.60;69.60;;;;;;5068612;28;20207;-88
2022/03/20 08:05:35;;;;;;;40.20;22.13;;;5.50;70.40;;;;;;5067240;28;20283;-90
2022/03/20 08:08:02;;;;;;;34.20;20.70;;;5.40;71.40;;;;;;5060124;28;20225;-89
2022/03/20 08:10:29;;;;;;;46.00;22.20;;;5.40;72.50;;;;;;5057774;28;20204;-89
2022/03/20 08:12:54;;;;;;;40.22;24.35;;;5.40;73.60;;;;;;5067485;28;20227;-89
2022/03/20 08:15:20;;;;;;;44.67;21.77;;;5.20;74.30;;;;;;5065861;28;20189;-89
2022/03/20 08:17:48;;;;;;;43.90;23.70;;;5.10;76.00;;;;;;5057293;28;20204;-90
2022/03/20 08:20:20;;;;;;;47.85;24.75;;;5.10;77.10;;;;;;5057353;28;20427;-89
2022/03/20 08:22:46;;;;;;;41.00;24.20;;;4.90;77.70;;;;;;5058580;28;20176;-89
2022/03/20 08:25:12;;;;;;;43.27;22.73;;;4.80;78.80;;;;;;5059085;28;20173;-89
2022/03/20 08:27:43;;;;;;;41.97;23.63;;;4.90;80.00;;;;;;5058933;28;20205;-90
2022/03/20 08:30:13;;;;;;;47.33;24.50;;;4.80;81.20;;;;;;5059219;28;20169;-91
2022/03/20 08:32:39;;;;;;;43.47;25.27;;;4.80;81.40;;;;;;5063929;28;20248;-89
2022/03/20 08:35:07;;;;;;;58.77;24.80;;;4.80;81.90;;;;;;5068555;28;20189;-89
2022/03/20 08:37:35;;;;;;;44.88;23.67;;;5.00;82.40;;;;;;5058794;28;20209;-88
2022/03/20 08:40:02;;;;;;;47.90;25.95;;;5.10;82.70;;;;;;5056601;28;20184;-89
2022/03/20 08:42:28;;;;;;;49.10;26.42;;;5.10;82.60;;;;;;5068235;28;20188;-89
2022/03/20 08:44:53;;;;;;;44.57;25.53;;;5.00;82.10;;;;;;5066682;28;20181;-90
2022/03/20 08:47:19;;;;;;;43.87;23.63;;;5.10;81.30;;;;;;5044498;28;20212;-90
2022/03/20 08:49:45;;;;;;;46.93;24.60;;;5.10;80.70;;;;;;5037251;28;20177;-90
2022/03/20 08:52:11;;;;;;;49.00;24.80;;;5.30;80.70;;;;;;5041340;28;20193;-91
2022/03/20 08:54:39;;;;;;;42.60;25.00;;;5.50;80.90;;;;;;5056834;28;20488;-90
2022/03/20 08:57:06;;;;;;;45.35;24.95;;;5.70;81.00;;;;;;5056487;28;20283;-88
2022/03/20 08:59:32;;;;;;;44.38;24.85;;;5.80;80.70;;;;;;5057185;28;20242;-89
2022/03/20 09:01:58;;;;;;;44.65;25.33;;;5.90;80.20;;;;;;5060460;28;20203;-89
2022/03/20 09:04:32;;;;;;;48.20;25.17;;;5.90;79.00;;;;;;5056657;28;20209;-88
2022/03/20 09:06:57;;;;;;;42.08;23.00;;;5.90;78.20;;;;;;5068712;28;20290;-86
2022/03/20 09:09:23;;;;;;;41.27;23.23;;;6.00;77.80;;;;;;5063119;28;20217;-89
2022/03/20 09:11:49;;;;;;;40.70;23.70;;;6.00;77.20;;;;;;5057116;28;20185;-87
2022/03/20 09:14:14;;;;;;;40.37;23.70;;;6.30;77.20;;;;;;5058071;28;20205;-87
2022/03/20 09:19:26;;;;;;;46.90;24.40;;;6.80;75.70;;;;;;5047991;28;20165;-85
2022/03/20 09:21:51;;;;;;;43.80;23.52;;;6.70;74.00;;;;;;5060331;28;20181;-85
2022/03/20 09:24:18;;;;;;;40.60;22.90;;;6.70;74.10;;;;;;5064332;28;20239;-89
2022/03/20 09:26:44;;;;;;;40.95;23.63;;;6.70;73.90;;;;;;5066823;28;20216;-89
2022/03/20 09:29:19;;;;;;;40.60;22.02;;;6.70;73.00;;;;;;5080437;28;20188;-90
2022/03/20 09:31:50;;;;;;;40.75;22.92;;;6.70;72.80;;;;;;5061159;28;20173;-89
2022/03/20 09:34:16;;;;;;;38.45;22.35;;;6.80;72.80;;;;;;5060713;28;20197;-90
2022/03/20 09:36:42;;;;;;;50.30;23.58;;;6.70;72.60;;;;;;5062928;28;20331;-90
2022/03/20 09:39:08;;;;;;;48.07;23.50;;;6.70;72.00;;;;;;5064223;28;20181;-91
2022/03/20 09:41:37;;;;;;;43.47;25.10;;;6.70;71.70;;;;;;5065148;28;20491;-89
2022/03/20 09:44:07;;;;;;;39.75;21.50;;;6.80;71.60;;;;;;5059324;28;20423;-90
2022/03/20 09:46:34;;;;;;;33.20;21.17;;;7.10;71.60;;;;;;5053178;28;20240;-91
2022/03/20 09:49:02;;;;;;;36.50;22.08;;;7.30;71.10;;;;;;5047497;28;20173;-89
2022/03/20 09:51:28;;;;;;;47.97;22.75;;;7.40;70.50;;;;;;5065527;28;20196;-90
2022/03/20 09:53:54;;;;;;;35.80;21.33;;;7.40;69.60;;;;;;5064912;28;20170;-88
2022/03/20 09:56:20;;;;;;;36.70;22.20;;;7.30;68.10;;;;;;5049901;28;20463;-89
2022/03/20 09:58:47;;;;;;;36.53;21.10;;;7.30;67.80;;;;;;5059133;28;20249;-88
2022/03/20 10:01:13;;;;;;;44.53;23.35;;;7.50;67.90;;;;;;5085091;28;20200;-89
2022/03/20 10:03:39;;;;;;;40.58;23.13;;;7.40;67.40;;;;;;5073964;28;20199;-91
2022/03/20 10:06:20;;;;;;;39.70;21.98;;;7.60;67.30;;;;;;5094961;28;20228;-92
2022/03/20 10:08:59;;;;;;;37.30;21.73;;;7.90;66.40;;;;;;5094440;28;20268;-90
2022/03/20 10:11:26;;;;;;;43.05;23.92;;;7.90;65.70;;;;;;5090724;28;20180;-91
2022/03/20 10:14:14;;;;;;;36.28;21.00;;;8.10;65.20;;;;;;5088040;28;20181;-91
2022/03/20 10:16:44;;;;;;;35.58;21.38;;;8.10;64.80;;;;;;5088352;28;20197;-91
2022/03/20 10:19:36;;;;;;;37.30;21.65;;;8.10;63.70;;;;;;5088320;28;20177;-92
2022/03/20 10:22:07;;;;;;;30.92;20.45;;;8.20;62.80;;;;;;5071115;28;20200;-93
2022/03/20 10:24:38;;;;;;;36.33;20.88;;;8.40;62.60;;;;;;5088609;28;20191;-92
2022/03/20 10:27:04;;;;;;;34.58;21.17;;;8.70;62.10;;;;;;5087190;28;20232;-90
2022/03/20 10:29:48;;;;;;;34.28;19.90;;;8.40;60.10;;;;;;5088267;28;20188;-90
2022/03/20 10:32:14;;;;;;;40.67;22.80;;;8.20;60.20;;;;;;5088899;28;20177;-91
2022/03/20 10:34:52;;;;;;;40.40;22.35;;;8.30;61.30;;;;;;5089522;28;20191;-92
2022/03/20 10:37:22;;;;;;;35.75;20.70;;;8.40;59.70;;;;;;5088465;28;20260;-93
2022/03/20 10:40:29;;;;;;;43.42;23.10;;;8.50;59.30;;;;;;5072978;28;20253;-92
2022/03/20 10:43:16;;;;;;;38.78;20.98;;;8.60;59.20;;;;;;5074048;28;20192;-92
2022/03/20 10:46:01;;;;;;;32.50;20.98;;;8.40;58.20;;;;;;5072174;28;20208;-90
2022/03/20 10:48:35;;;;;;;38.60;20.73;;;8.30;58.40;;;;;;5074268;28;20178;-90
2022/03/20 10:51:02;;;;;;;33.22;20.38;;;8.10;58.50;;;;;;5062629;28;20238;-88
2022/03/20 10:53:35;;;;;;;31.17;21.05;;;8.30;58.80;;;;;;5062896;28;20197;-88
2022/03/20 10:56:08;;;;;;;37.53;22.38;;;8.60;58.90;;;;;;5069120;28;20717;-89
2022/03/20 10:58:39;;;;;;;35.35;20.75;;;8.80;58.60;;;;;;5068915;28;20186;-90
2022/03/20 11:01:12;;;;;;;35.17;20.30;;;8.90;57.40;;;;;;5087389;28;20196;-87
2022/03/20 11:03:39;;;;;;;41.50;20.52;;;8.80;57.00;;;;;;5068631;28;20191;-89
2022/03/20 11:06:11;;;;;;;37.38;20.77;;;8.70;56.70;;;;;;5069493;28;20282;-89
2022/03/20 11:08:38;;;;;;;36.17;22.73;;;8.80;56.50;;;;;;5069982;28;20185;-90
2022/03/20 11:11:09;;;;;;;34.88;21.00;;;8.80;56.80;;;;;;5070418;28;20543;-89
2022/03/20 11:13:40;;;;;;;39.60;21.70;;;9.00;56.40;;;;;;5059369;28;20202;-88
2022/03/20 11:16:08;;;;;;;36.55;20.85;;;8.90;55.90;;;;;;5049596;28;20261;-88
2022/03/20 11:18:37;;;;;;;32.13;20.77;;;9.20;56.00;;;;;;5052865;28;20189;-88
2022/03/20 11:21:05;;;;;;;43.40;21.45;;;9.10;55.10;;;;;;5072785;28;20177;-88
2022/03/20 11:23:33;;;;;;;32.22;21.17;;;9.10;54.50;;;;;;5071790;28;20652;-88
2022/03/20 11:26:01;;;;;;;33.50;20.10;;;9.30;54.60;;;;;;5059389;28;20221;-88
2022/03/20 11:28:30;;;;;;;42.85;23.20;;;9.10;53.00;;;;;;5074226;28;20185;-88
2022/03/20 11:30:58;;;;;;;36.65;22.40;;;9.30;53.10;;;;;;5073276;28;20180;-88
2022/03/20 11:33:25;;;;;;;36.28;21.00;;;9.60;52.40;;;;;;5072650;28;20197;-88
2022/03/20 11:35:52;;;;;;;35.88;20.90;;;9.60;51.70;;;;;;5072716;28;20601;-88
2022/03/20 11:38:25;;;;;;;38.17;21.33;;;9.40;51.20;;;;;;5070442;28;20201;-87
2022/03/20 11:41:11;;;;;;;36.45;20.27;;;9.60;51.30;;;;;;5071076;28;20173;-88
2022/03/20 11:43:47;;;;;;;32.97;19.92;;;9.70;51.80;;;;;;5066118;28;20198;-88
2022/03/20 11:46:39;;;;;;;36.47;21.25;;;9.90;51.50;;;;;;5064986;28;20201;-88
2022/03/20 11:49:13;;;;;;;37.55;21.55;;;10.00;51.10;;;;;;5068798;28;20178;-88
2022/03/20 11:52:05;;;;;;;34.00;21.20;;;9.80;48.70;;;;;;5067871;28;20228;-89
2022/03/20 11:54:40;;;;;;;30.00;19.88;;;9.80;48.80;;;;;;5066655;28;20199;-92
2022/03/20 11:57:28;;;;;;;33.60;20.38;;;9.80;49.70;;;;;;5072288;28;20200;-91
2022/03/20 12:00:08;;;;;;;35.95;21.52;;;10.10;50.10;;;;;;5070303;28;20283;-89
2022/03/20 12:02:34;;;;;;;31.42;21.40;;;10.50;49.50;;;;;;5066517;28;20205;-86
2022/03/20 12:05:33;;;;;;;36.77;23.43;;;10.40;48.40;;;;;;5065317;28;20191;-86
2022/03/20 12:08:08;;;;;;;34.75;22.23;;;10.30;47.80;;;;;;5034633;28;20467;-88
2022/03/20 12:11:04;;;;;;;32.25;21.20;;;10.10;48.20;;;;;;5065529;28;20199;-88
2022/03/20 12:14:13;;;;;;;34.28;21.77;;;10.60;48.20;;;;;;5066753;28;20178;-87
2022/03/20 12:16:50;;;;;;;43.25;23.80;;;10.90;48.50;;;;;;5043425;28;20209;-88
2022/03/20 12:19:22;;;;;;;36.55;22.92;;;11.00;48.20;;;;;;5064589;28;20193;-87
2022/03/20 12:22:15;;;;;;;33.85;23.15;;;11.30;47.90;;;;;;5066812;28;20199;-87
2022/03/20 12:24:57;;;;;;;37.55;23.77;;;11.60;47.00;;;;;;5084988;28;20196;-87
2022/03/20 12:27:23;;;;;;;40.33;23.80;;;11.50;46.20;;;;;;5033631;28;20213;-86
2022/03/20 12:30:09;;;;;;;40.22;22.73;;;11.00;45.60;;;;;;5052761;28;20241;-87
2022/03/20 12:32:58;;;;;;;37.05;23.65;;;11.20;46.30;;;;;;5059658;28;20213;-87
2022/03/20 12:35:27;;;;;;;29.90;20.70;;;11.10;46.70;;;;;;5047956;28;20193;-88
2022/03/20 12:37:55;;;;;;;36.35;21.90;;;10.60;46.40;;;;;;5047523;28;20202;-87
2022/03/20 12:40:26;;;;;;;33.15;23.25;;;10.90;48.50;;;;;;5047394;28;20192;-86
2022/03/20 12:43:05;;;;;;;34.38;22.73;;;10.90;47.90;;;;;;5052560;28;20188;-87
2022/03/20 12:45:33;;;;;;;32.47;22.85;;;11.20;47.50;;;;;;5063318;28;20188;-88
2022/03/20 12:48:20;;;;;;;36.67;23.98;;;11.30;47.40;;;;;;5066827;28;20699;-87
2022/03/20 12:51:09;;;;;;;38.67;24.30;;;11.40;46.80;;;;;;5072980;28;20169;-88
2022/03/20 12:53:43;;;;;;;38.90;22.83;;;11.30;46.50;;;;;;5070069;28;20150;-86
2022/03/20 12:58:54;;;;;;;40.40;23.92;;;11.30;47.40;;;;;;5067044;28;20240;-86
2022/03/20 13:01:21;;;;;;;43.78;22.95;;;11.40;47.50;;;;;;5061691;28;20247;-87
2022/03/20 13:03:48;;;;;;;40.28;24.88;;;11.20;46.50;;;;;;5064226;28;20185;-88
2022/03/20 13:06:15;;;;;;;38.35;24.42;;;11.10;46.20;;;;;;5055690;28;20225;-87
2022/03/20 13:08:45;;;;;;;37.20;25.30;;;11.00;47.00;;;;;;5047293;28;20208;-87
2022/03/20 13:14:03;;;;;;;41.30;25.20;;;11.30;48.20;;;;;;5056719;28;20196;-88
2022/03/20 13:16:30;;;;;;;38.50;24.52;;;11.40;47.60;;;;;;5081587;28;20201;-88
2022/03/20 13:19:03;;;;;;;39.22;23.08;;;11.70;47.90;;;;;;5081609;28;20263;-88
2022/03/20 13:21:30;;;;;;;40.78;23.33;;;11.60;46.30;;;;;;5080944;28;20714;-88
2022/03/20 13:23:56;;;;;;;35.70;25.02;;;11.50;46.40;;;;;;5056398;28;20187;-90
2022/03/20 13:26:22;;;;;;;36.63;23.87;;;;;;;;;;5055984;28;21817;-91
2022/03/20 13:28:49;;;;;;;37.67;24.42;;;11.50;46.30;;;;;;5055939;28;20423;-89
2022/03/20 13:31:27;;;;;;;32.67;24.58;;;11.80;47.30;;;;;;5056001;28;20181;-90
2022/03/20 13:33:59;;;;;;;38.65;26.80;;;12.10;47.20;;;;;;5060890;28;20256;-91
2022/03/20 13:36:35;;;;;;;45.53;27.38;;;11.90;46.40;;;;;;5062170;28;20209;-90
2022/03/20 13:39:02;;;;;;;41.17;25.75;;;;;;;;;;5065615;28;20209;-89